Terminal Aerodrome Forecast
Issued by NWS Cleveland, OH

Home | Current Version | Previous Version | Text Only | Print | Product List | Glossary On
Versions: 1 2 3 4 5 6 7 8 9 10 11 12 13 14 15 16
041
FTUS41 KCLE 040520
TAFYNG
TAF
KYNG 040520Z 0406/0506 26005KT P6SM OVC035
     FM040900 VRB03KT P6SM SCT035 BKN120
     FM041500 11004KT P6SM BKN120
     FM050000 14005KT 6SM -RASN OVC040=

USA.gov is the U.S. government's official web portal to all federal, state and local government web resources and services.